sensor_id;sensor_type;location;lat;lon;timestamp;temperature;humidity
71084;DHT22;58741;52.672;13.548;2024-02-26T00:00:01;1.80;99.90
71084;DHT22;58741;52.672;13.548;2024-02-26T00:02:30;1.80;99.90
71084;DHT22;58741;52.672;13.548;2024-02-26T00:04:58;1.80;99.90
71084;DHT22;58741;52.672;13.548;2024-02-26T00:07:25;1.70;99.90
71084;DHT22;58741;52.672;13.548;2024-02-26T00:09:51;1.70;99.90
71084;DHT22;58741;52.672;13.548;2024-02-26T00:12:18;1.70;99.90
71084;DHT22;58741;52.672;13.548;2024-02-26T00:14:45;1.70;99.90
71084;DHT22;58741;52.672;13.548;2024-02-26T00:17:13;1.70;99.90
71084;DHT22;58741;52.672;13.548;2024-02-26T00:19:40;1.70;99.90
71084;DHT22;58741;52.672;13.548;2024-02-26T00:22:07;1.60;99.90
71084;DHT22;58741;52.672;13.548;2024-02-26T00:24:34;1.60;99.90
71084;DHT22;58741;52.672;13.548;2024-02-26T00:27:00;1.60;99.90
71084;DHT22;58741;52.672;13.548;2024-02-26T00:29:27;1.60;99.90
71084;DHT22;58741;52.672;13.548;2024-02-26T00:31:54;1.50;99.90
71084;DHT22;58741;52.672;13.548;2024-02-26T00:34:21;1.50;99.90
71084;DHT22;58741;52.672;13.548;2024-02-26T00:36:48;1.50;99.90
71084;DHT22;58741;52.672;13.548;2024-02-26T00:39:15;1.40;99.90
71084;DHT22;58741;52.672;13.548;2024-02-26T00:41:42;1.40;99.90
71084;DHT22;58741;52.672;13.548;2024-02-26T00:44:09;1.40;99.90
71084;DHT22;58741;52.672;13.548;2024-02-26T00:46:35;1.40;99.90
71084;DHT22;58741;52.672;13.548;2024-02-26T00:49:02;1.40;99.90
71084;DHT22;58741;52.672;13.548;2024-02-26T00:51:30;1.30;99.90
71084;DHT22;58741;52.672;13.548;2024-02-26T00:53:57;1.30;99.90
71084;DHT22;58741;52.672;13.548;2024-02-26T00:56:24;1.30;99.90
71084;DHT22;58741;52.672;13.548;2024-02-26T00:58:50;1.20;99.90
71084;DHT22;58741;52.672;13.548;2024-02-26T01:01:18;1.20;99.90
71084;DHT22;58741;52.672;13.548;2024-02-26T01:03:44;1.20;99.90
71084;DHT22;58741;52.672;13.548;2024-02-26T01:06:11;1.20;99.90
71084;DHT22;58741;52.672;13.548;2024-02-26T01:08:38;1.10;99.90
71084;DHT22;58741;52.672;13.548;2024-02-26T01:11:05;1.10;99.90
71084;DHT22;58741;52.672;13.548;2024-02-26T01:13:33;1.10;99.90
71084;DHT22;58741;52.672;13.548;2024-02-26T01:15:59;1.10;99.90
71084;DHT22;58741;52.672;13.548;2024-02-26T01:18:28;1.00;99.90
71084;DHT22;58741;52.672;13.548;2024-02-26T01:20:55;1.00;99.90
71084;DHT22;58741;52.672;13.548;2024-02-26T01:23:21;1.00;99.90
71084;DHT22;58741;52.672;13.548;2024-02-26T01:25:48;1.00;99.90
71084;DHT22;58741;52.672;13.548;2024-02-26T01:28:16;0.90;99.90
71084;DHT22;58741;52.672;13.548;2024-02-26T01:30:43;0.90;99.90
71084;DHT22;58741;52.672;13.548;2024-02-26T01:33:09;0.90;99.90
71084;DHT22;58741;52.672;13.548;2024-02-26T01:35:36;0.90;99.90
71084;DHT22;58741;52.672;13.548;2024-02-26T01:38:03;0.80;99.90
71084;DHT22;58741;52.672;13.548;2024-02-26T01:40:30;0.90;99.90
71084;DHT22;58741;52.672;13.548;2024-02-26T01:42:57;0.80;99.90
71084;DHT22;58741;52.672;13.548;2024-02-26T01:45:25;0.80;99.90
71084;DHT22;58741;52.672;13.548;2024-02-26T01:47:52;0.80;99.90
71084;DHT22;58741;52.672;13.548;2024-02-26T01:50:20;0.80;99.90
71084;DHT22;58741;52.672;13.548;2024-02-26T01:52:50;0.70;99.90
71084;DHT22;58741;52.672;13.548;2024-02-26T01:55:20;0.70;99.90
71084;DHT22;58741;52.672;13.548;2024-02-26T01:57:49;0.70;99.90
71084;DHT22;58741;52.672;13.548;2024-02-26T02:00:18;0.70;99.90
71084;DHT22;58741;52.672;13.548;2024-02-26T02:02:46;0.70;99.90
71084;DHT22;58741;52.672;13.548;2024-02-26T02:05:16;0.70;99.90
71084;DHT22;58741;52.672;13.548;2024-02-26T02:07:45;0.70;99.90
71084;DHT22;58741;52.672;13.548;2024-02-26T02:10:15;0.70;99.90
71084;DHT22;58741;52.672;13.548;2024-02-26T02:12:43;0.70;99.90
71084;DHT22;58741;52.672;13.548;2024-02-26T02:15:10;0.60;99.90
71084;DHT22;58741;52.672;13.548;2024-02-26T02:17:37;0.60;99.90
71084;DHT22;58741;52.672;13.548;2024-02-26T02:20:07;0.60;99.90
71084;DHT22;58741;52.672;13.548;2024-02-26T02:22:34;0.60;99.90
71084;DHT22;58741;52.672;13.548;2024-02-26T02:25:01;0.60;99.90
71084;DHT22;58741;52.672;13.548;2024-02-26T02:27:28;0.50;99.90
71084;DHT22;58741;52.672;13.548;2024-02-26T02:29:56;0.50;99.90
71084;DHT22;58741;52.672;13.548;2024-02-26T02:32:24;0.50;99.90
71084;DHT22;58741;52.672;13.548;2024-02-26T02:34:52;0.50;99.90
71084;DHT22;58741;52.672;13.548;2024-02-26T02:37:19;0.50;99.90
71084;DHT22;58741;52.672;13.548;2024-02-26T02:39:45;0.50;99.90
71084;DHT22;58741;52.672;13.548;2024-02-26T02:42:13;0.40;99.90
71084;DHT22;58741;52.672;13.548;2024-02-26T02:44:39;0.40;99.90
71084;DHT22;58741;52.672;13.548;2024-02-26T02:47:06;0.40;99.90
71084;DHT22;58741;52.672;13.548;2024-02-26T02:49:33;0.40;99.90
71084;DHT22;58741;52.672;13.548;2024-02-26T02:52:00;0.40;99.90
71084;DHT22;58741;52.672;13.548;2024-02-26T02:54:27;0.30;99.90
71084;DHT22;58741;52.672;13.548;2024-02-26T02:56:54;0.30;99.90
71084;DHT22;58741;52.672;13.548;2024-02-26T02:59:21;0.30;99.90
71084;DHT22;58741;52.672;13.548;2024-02-26T03:01:48;0.30;99.90
71084;DHT22;58741;52.672;13.548;2024-02-26T03:04:14;0.30;99.90
71084;DHT22;58741;52.672;13.548;2024-02-26T03:06:41;0.20;99.90
71084;DHT22;58741;52.672;13.548;2024-02-26T03:09:08;0.20;99.90
71084;DHT22;58741;52.672;13.548;2024-02-26T03:11:35;0.20;99.90
71084;DHT22;58741;52.672;13.548;2024-02-26T03:14:02;0.20;99.90
71084;DHT22;58741;52.672;13.548;2024-02-26T03:16:29;0.20;99.90
71084;DHT22;58741;52.672;13.548;2024-02-26T03:18:56;0.20;99.90
71084;DHT22;58741;52.672;13.548;2024-02-26T03:21:25;0.20;99.90
71084;DHT22;58741;52.672;13.548;2024-02-26T03:23:51;0.10;99.90
71084;DHT22;58741;52.672;13.548;2024-02-26T03:26:18;0.10;99.90
71084;DHT22;58741;52.672;13.548;2024-02-26T03:28:45;0.10;99.90
71084;DHT22;58741;52.672;13.548;2024-02-26T03:31:12;0.10;99.90
71084;DHT22;58741;52.672;13.548;2024-02-26T03:33:39;0.10;99.90
71084;DHT22;58741;52.672;13.548;2024-02-26T03:36:06;0.10;99.90
71084;DHT22;58741;52.672;13.548;2024-02-26T03:38:34;0.10;99.90
71084;DHT22;58741;52.672;13.548;2024-02-26T03:41:00;0.00;99.90
71084;DHT22;58741;52.672;13.548;2024-02-26T03:43:27;0.00;99.90
71084;DHT22;58741;52.672;13.548;2024-02-26T03:45:54;0.00;99.90
71084;DHT22;58741;52.672;13.548;2024-02-26T03:48:21;0.00;99.90
71084;DHT22;58741;52.672;13.548;2024-02-26T03:50:48;0.00;99.90
71084;DHT22;58741;52.672;13.548;2024-02-26T03:53:15;0.00;99.90
71084;DHT22;58741;52.672;13.548;2024-02-26T03:55:42;0.00;99.90
71084;DHT22;58741;52.672;13.548;2024-02-26T03:58:09;0.00;99.90
71084;DHT22;58741;52.672;13.548;2024-02-26T04:00:37;-0.10;99.90
71084;DHT22;58741;52.672;13.548;2024-02-26T04:03:04;-0.10;99.90
71084;DHT22;58741;52.672;13.548;2024-02-26T04:05:31;-0.10;99.90
71084;DHT22;58741;52.672;13.548;2024-02-26T04:07:57;-0.10;99.90
71084;DHT22;58741;52.672;13.548;2024-02-26T04:10:24;-0.10;99.90
71084;DHT22;58741;52.672;13.548;2024-02-26T04:12:51;-0.10;99.90
71084;DHT22;58741;52.672;13.548;2024-02-26T04:15:18;-0.10;99.90
71084;DHT22;58741;52.672;13.548;2024-02-26T04:17:45;-0.10;99.90
71084;DHT22;58741;52.672;13.548;2024-02-26T04:20:15;-0.10;99.90
71084;DHT22;58741;52.672;13.548;2024-02-26T04:22:44;-0.10;99.90
71084;DHT22;58741;52.672;13.548;2024-02-26T04:25:11;-0.10;99.90
71084;DHT22;58741;52.672;13.548;2024-02-26T04:27:38;-0.10;99.90
71084;DHT22;58741;52.672;13.548;2024-02-26T04:30:06;-0.20;99.90
71084;DHT22;58741;52.672;13.548;2024-02-26T04:32:34;-0.20;99.90
71084;DHT22;58741;52.672;13.548;2024-02-26T04:35:02;-0.20;99.90
71084;DHT22;58741;52.672;13.548;2024-02-26T04:37:29;-0.20;99.90
71084;DHT22;58741;52.672;13.548;2024-02-26T04:40:01;-0.20;99.90
71084;DHT22;58741;52.672;13.548;2024-02-26T04:42:28;-0.20;99.90
71084;DHT22;58741;52.672;13.548;2024-02-26T04:44:55;-0.20;99.90
71084;DHT22;58741;52.672;13.548;2024-02-26T04:47:22;-0.20;99.90
71084;DHT22;58741;52.672;13.548;2024-02-26T04:49:50;-0.20;99.90
71084;DHT22;58741;52.672;13.548;2024-02-26T04:52:18;-0.20;99.90
71084;DHT22;58741;52.672;13.548;2024-02-26T04:54:45;-0.20;99.90
71084;DHT22;58741;52.672;13.548;2024-02-26T04:57:12;-0.20;99.90
71084;DHT22;58741;52.672;13.548;2024-02-26T04:59:39;-0.20;99.90
71084;DHT22;58741;52.672;13.548;2024-02-26T05:02:07;-0.20;99.90
71084;DHT22;58741;52.672;13.548;2024-02-26T05:04:34;-0.20;99.90
71084;DHT22;58741;52.672;13.548;2024-02-26T05:07:01;-0.30;99.90
71084;DHT22;58741;52.672;13.548;2024-02-26T05:09:28;-0.20;99.90
71084;DHT22;58741;52.672;13.548;2024-02-26T05:11:55;-0.30;99.90
71084;DHT22;58741;52.672;13.548;2024-02-26T05:14:22;-0.20;99.90
71084;DHT22;58741;52.672;13.548;2024-02-26T05:16:48;-0.20;99.90
71084;DHT22;58741;52.672;13.548;2024-02-26T05:19:15;-0.30;99.90
71084;DHT22;58741;52.672;13.548;2024-02-26T05:21:42;-0.30;99.90
71084;DHT22;58741;52.672;13.548;2024-02-26T05:24:10;-0.30;99.90
71084;DHT22;58741;52.672;13.548;2024-02-26T05:26:37;-0.30;99.90
71084;DHT22;58741;52.672;13.548;2024-02-26T05:29:04;-0.30;99.90
71084;DHT22;58741;52.672;13.548;2024-02-26T05:31:31;-0.30;99.90
71084;DHT22;58741;52.672;13.548;2024-02-26T05:33:57;-0.30;99.90
71084;DHT22;58741;52.672;13.548;2024-02-26T05:36:25;-0.30;99.90
71084;DHT22;58741;52.672;13.548;2024-02-26T05:38:52;-0.30;99.90
71084;DHT22;58741;52.672;13.548;2024-02-26T05:41:19;-0.30;99.90
71084;DHT22;58741;52.672;13.548;2024-02-26T05:43:50;-0.30;99.90
71084;DHT22;58741;52.672;13.548;2024-02-26T05:46:20;-0.30;99.90
71084;DHT22;58741;52.672;13.548;2024-02-26T05:48:51;-0.30;99.90
71084;DHT22;58741;52.672;13.548;2024-02-26T05:51:19;-0.30;99.90
71084;DHT22;58741;52.672;13.548;2024-02-26T05:53:46;-0.30;99.90
71084;DHT22;58741;52.672;13.548;2024-02-26T05:56:23;-0.30;99.90
71084;DHT22;58741;52.672;13.548;2024-02-26T05:58:50;-0.30;99.90
71084;DHT22;58741;52.672;13.548;2024-02-26T06:01:17;-0.30;99.90
71084;DHT22;58741;52.672;13.548;2024-02-26T06:03:44;-0.30;99.90
71084;DHT22;58741;52.672;13.548;2024-02-26T06:06:12;-0.30;99.90
71084;DHT22;58741;52.672;13.548;2024-02-26T06:08:39;-0.30;99.90
71084;DHT22;58741;52.672;13.548;2024-02-26T06:11:06;-0.30;99.90
71084;DHT22;58741;52.672;13.548;2024-02-26T06:13:36;-0.30;99.90
71084;DHT22;58741;52.672;13.548;2024-02-26T06:16:03;-0.30;99.90
71084;DHT22;58741;52.672;13.548;2024-02-26T06:18:30;-0.30;99.90
71084;DHT22;58741;52.672;13.548;2024-02-26T06:20:57;-0.20;99.90
71084;DHT22;58741;52.672;13.548;2024-02-26T06:23:24;-0.20;99.90
71084;DHT22;58741;52.672;13.548;2024-02-26T06:25:52;-0.20;99.90
71084;DHT22;58741;52.672;13.548;2024-02-26T06:28:19;-0.20;99.90
71084;DHT22;58741;52.672;13.548;2024-02-26T06:30:46;-0.10;99.90
71084;DHT22;58741;52.672;13.548;2024-02-26T06:33:13;-0.10;99.90
71084;DHT22;58741;52.672;13.548;2024-02-26T06:35:41;-0.10;99.90
71084;DHT22;58741;52.672;13.548;2024-02-26T06:38:08;-0.10;99.90
71084;DHT22;58741;52.672;13.548;2024-02-26T06:40:36;-0.10;99.90
71084;DHT22;58741;52.672;13.548;2024-02-26T06:43:02;0.00;99.90
71084;DHT22;58741;52.672;13.548;2024-02-26T06:45:29;0.00;99.90
71084;DHT22;58741;52.672;13.548;2024-02-26T06:47:56;0.10;99.90
71084;DHT22;58741;52.672;13.548;2024-02-26T06:50:23;0.10;99.90
71084;DHT22;58741;52.672;13.548;2024-02-26T06:52:50;0.20;99.90
71084;DHT22;58741;52.672;13.548;2024-02-26T06:55:16;0.30;99.90
71084;DHT22;58741;52.672;13.548;2024-02-26T06:57:43;0.30;99.90
71084;DHT22;58741;52.672;13.548;2024-02-26T07:00:11;0.40;99.90
71084;DHT22;58741;52.672;13.548;2024-02-26T07:02:42;0.50;99.90
71084;DHT22;58741;52.672;13.548;2024-02-26T07:05:09;0.60;99.90
71084;DHT22;58741;52.672;13.548;2024-02-26T07:07:36;0.60;99.90
71084;DHT22;58741;52.672;13.548;2024-02-26T07:10:03;0.70;99.90
71084;DHT22;58741;52.672;13.548;2024-02-26T07:12:32;0.80;99.90
71084;DHT22;58741;52.672;13.548;2024-02-26T07:14:59;1.00;99.90
71084;DHT22;58741;52.672;13.548;2024-02-26T07:17:27;1.10;99.90
71084;DHT22;58741;52.672;13.548;2024-02-26T07:19:54;1.20;99.90
71084;DHT22;58741;52.672;13.548;2024-02-26T07:22:21;1.30;99.90
71084;DHT22;58741;52.672;13.548;2024-02-26T07:24:48;1.40;99.90
71084;DHT22;58741;52.672;13.548;2024-02-26T07:27:14;1.60;99.90
71084;DHT22;58741;52.672;13.548;2024-02-26T07:29:44;1.70;99.90
71084;DHT22;58741;52.672;13.548;2024-02-26T07:32:11;1.80;99.90
71084;DHT22;58741;52.672;13.548;2024-02-26T07:34:38;2.00;99.90
71084;DHT22;58741;52.672;13.548;2024-02-26T07:37:08;2.20;99.90
71084;DHT22;58741;52.672;13.548;2024-02-26T07:39:35;2.30;99.90
71084;DHT22;58741;52.672;13.548;2024-02-26T07:42:02;2.50;99.90
71084;DHT22;58741;52.672;13.548;2024-02-26T07:44:29;2.60;99.90
71084;DHT22;58741;52.672;13.548;2024-02-26T07:46:56;2.80;99.90
71084;DHT22;58741;52.672;13.548;2024-02-26T07:49:23;3.00;99.90
71084;DHT22;58741;52.672;13.548;2024-02-26T07:51:50;3.10;99.90
71084;DHT22;58741;52.672;13.548;2024-02-26T07:54:17;3.30;99.90
71084;DHT22;58741;52.672;13.548;2024-02-26T07:56:46;3.40;99.90
71084;DHT22;58741;52.672;13.548;2024-02-26T07:59:13;3.60;99.90
71084;DHT22;58741;52.672;13.548;2024-02-26T08:01:40;3.70;99.90
71084;DHT22;58741;52.672;13.548;2024-02-26T08:04:08;3.90;99.90
71084;DHT22;58741;52.672;13.548;2024-02-26T08:06:35;4.10;99.90
71084;DHT22;58741;52.672;13.548;2024-02-26T08:09:04;4.20;99.90
71084;DHT22;58741;52.672;13.548;2024-02-26T08:11:31;4.40;99.90
71084;DHT22;58741;52.672;13.548;2024-02-26T08:13:58;4.50;99.90
71084;DHT22;58741;52.672;13.548;2024-02-26T08:16:25;4.70;99.90
71084;DHT22;58741;52.672;13.548;2024-02-26T08:18:53;4.80;99.90
71084;DHT22;58741;52.672;13.548;2024-02-26T08:21:20;4.90;99.90
71084;DHT22;58741;52.672;13.548;2024-02-26T08:23:47;5.00;99.90
71084;DHT22;58741;52.672;13.548;2024-02-26T08:26:14;5.20;99.90
71084;DHT22;58741;52.672;13.548;2024-02-26T08:28:41;5.20;99.90
71084;DHT22;58741;52.672;13.548;2024-02-26T08:31:08;5.30;99.90
71084;DHT22;58741;52.672;13.548;2024-02-26T08:33:35;5.40;99.90
71084;DHT22;58741;52.672;13.548;2024-02-26T08:36:05;5.50;99.90
71084;DHT22;58741;52.672;13.548;2024-02-26T08:38:33;5.60;99.90
71084;DHT22;58741;52.672;13.548;2024-02-26T08:41:02;5.70;99.90
71084;DHT22;58741;52.672;13.548;2024-02-26T08:43:29;5.70;99.90
71084;DHT22;58741;52.672;13.548;2024-02-26T08:45:57;5.70;99.90
71084;DHT22;58741;52.672;13.548;2024-02-26T08:48:24;5.80;99.90
71084;DHT22;58741;52.672;13.548;2024-02-26T08:50:51;5.90;99.90
71084;DHT22;58741;52.672;13.548;2024-02-26T08:53:18;6.00;99.90
71084;DHT22;58741;52.672;13.548;2024-02-26T08:55:57;6.10;99.90
71084;DHT22;58741;52.672;13.548;2024-02-26T08:58:24;6.20;99.90
71084;DHT22;58741;52.672;13.548;2024-02-26T09:00:50;6.40;99.90
71084;DHT22;58741;52.672;13.548;2024-02-26T09:03:17;6.50;99.90
71084;DHT22;58741;52.672;13.548;2024-02-26T09:05:44;6.70;99.90
71084;DHT22;58741;52.672;13.548;2024-02-26T09:08:11;6.80;99.90
71084;DHT22;58741;52.672;13.548;2024-02-26T09:10:38;6.90;99.90
71084;DHT22;58741;52.672;13.548;2024-02-26T09:13:05;7.00;99.90
71084;DHT22;58741;52.672;13.548;2024-02-26T09:15:32;7.20;99.90
71084;DHT22;58741;52.672;13.548;2024-02-26T09:17:59;7.30;99.90
71084;DHT22;58741;52.672;13.548;2024-02-26T09:20:26;7.40;99.90
71084;DHT22;58741;52.672;13.548;2024-02-26T09:22:53;7.50;99.90
71084;DHT22;58741;52.672;13.548;2024-02-26T09:25:20;7.60;99.90
71084;DHT22;58741;52.672;13.548;2024-02-26T09:27:47;7.70;99.90
71084;DHT22;58741;52.672;13.548;2024-02-26T09:30:14;7.90;99.90
71084;DHT22;58741;52.672;13.548;2024-02-26T09:32:41;8.00;99.90
71084;DHT22;58741;52.672;13.548;2024-02-26T09:35:12;8.20;99.90
71084;DHT22;58741;52.672;13.548;2024-02-26T09:37:40;8.40;99.90
71084;DHT22;58741;52.672;13.548;2024-02-26T09:40:07;8.50;99.90
71084;DHT22;58741;52.672;13.548;2024-02-26T09:42:34;8.60;99.90
71084;DHT22;58741;52.672;13.548;2024-02-26T09:45:05;8.70;99.90
71084;DHT22;58741;52.672;13.548;2024-02-26T09:47:36;8.80;99.90
71084;DHT22;58741;52.672;13.548;2024-02-26T09:50:06;8.90;99.90
71084;DHT22;58741;52.672;13.548;2024-02-26T09:52:37;9.00;99.90
71084;DHT22;58741;52.672;13.548;2024-02-26T09:55:05;9.10;99.90
71084;DHT22;58741;52.672;13.548;2024-02-26T09:57:32;9.20;99.90
71084;DHT22;58741;52.672;13.548;2024-02-26T10:00:00;9.30;99.90
71084;DHT22;58741;52.672;13.548;2024-02-26T10:02:33;9.40;99.90
71084;DHT22;58741;52.672;13.548;2024-02-26T10:05:02;9.50;99.90
71084;DHT22;58741;52.672;13.548;2024-02-26T10:07:32;9.50;99.90
71084;DHT22;58741;52.672;13.548;2024-02-26T10:09:59;9.60;99.90
71084;DHT22;58741;52.672;13.548;2024-02-26T10:12:28;9.60;99.90
71084;DHT22;58741;52.672;13.548;2024-02-26T10:14:56;9.70;99.90
71084;DHT22;58741;52.672;13.548;2024-02-26T10:17:24;9.80;99.90
71084;DHT22;58741;52.672;13.548;2024-02-26T10:19:52;9.90;99.90
71084;DHT22;58741;52.672;13.548;2024-02-26T10:22:23;10.00;99.90
71084;DHT22;58741;52.672;13.548;2024-02-26T10:24:49;10.10;99.90
71084;DHT22;58741;52.672;13.548;2024-02-26T10:27:17;10.20;99.90
71084;DHT22;58741;52.672;13.548;2024-02-26T10:29:45;10.30;99.90
71084;DHT22;58741;52.672;13.548;2024-02-26T10:32:13;10.30;99.90
71084;DHT22;58741;52.672;13.548;2024-02-26T10:34:40;10.40;99.90
71084;DHT22;58741;52.672;13.548;2024-02-26T10:37:09;10.50;99.90
71084;DHT22;58741;52.672;13.548;2024-02-26T10:39:36;10.70;99.90
71084;DHT22;58741;52.672;13.548;2024-02-26T10:42:04;10.80;99.90
71084;DHT22;58741;52.672;13.548;2024-02-26T10:44:36;10.90;99.90
71084;DHT22;58741;52.672;13.548;2024-02-26T10:47:07;11.10;99.90
71084;DHT22;58741;52.672;13.548;2024-02-26T10:49:35;11.20;99.90
71084;DHT22;58741;52.672;13.548;2024-02-26T10:52:04;11.40;99.90
71084;DHT22;58741;52.672;13.548;2024-02-26T10:54:33;11.50;99.90
71084;DHT22;58741;52.672;13.548;2024-02-26T10:57:01;11.70;99.90
71084;DHT22;58741;52.672;13.548;2024-02-26T10:59:29;11.90;99.90
71084;DHT22;58741;52.672;13.548;2024-02-26T11:01:59;12.00;99.90
71084;DHT22;58741;52.672;13.548;2024-02-26T11:04:26;12.10;99.90
71084;DHT22;58741;52.672;13.548;2024-02-26T11:06:55;12.20;99.90
71084;DHT22;58741;52.672;13.548;2024-02-26T11:09:24;12.40;99.90
71084;DHT22;58741;52.672;13.548;2024-02-26T11:11:52;12.50;99.90
71084;DHT22;58741;52.672;13.548;2024-02-26T11:14:21;12.60;99.90
71084;DHT22;58741;52.672;13.548;2024-02-26T11:16:52;12.70;99.90
71084;DHT22;58741;52.672;13.548;2024-02-26T11:19:22;12.80;99.90
71084;DHT22;58741;52.672;13.548;2024-02-26T11:21:51;12.90;99.90
71084;DHT22;58741;52.672;13.548;2024-02-26T11:24:17;13.00;99.90
71084;DHT22;58741;52.672;13.548;2024-02-26T11:26:54;13.10;99.90
71084;DHT22;58741;52.672;13.548;2024-02-26T11:29:49;13.20;99.90
71084;DHT22;58741;52.672;13.548;2024-02-26T11:32:17;13.40;99.90
71084;DHT22;58741;52.672;13.548;2024-02-26T11:34:44;13.50;99.90
71084;DHT22;58741;52.672;13.548;2024-02-26T11:37:13;13.60;99.90
71084;DHT22;58741;52.672;13.548;2024-02-26T11:39:41;13.70;99.90
71084;DHT22;58741;52.672;13.548;2024-02-26T11:42:09;13.80;99.90
71084;DHT22;58741;52.672;13.548;2024-02-26T11:44:36;13.90;99.90
71084;DHT22;58741;52.672;13.548;2024-02-26T11:47:19;14.00;99.90
71084;DHT22;58741;52.672;13.548;2024-02-26T11:49:47;14.10;99.90
71084;DHT22;58741;52.672;13.548;2024-02-26T11:52:15;14.10;99.90
71084;DHT22;58741;52.672;13.548;2024-02-26T11:54:48;14.20;99.90
71084;DHT22;58741;52.672;13.548;2024-02-26T11:57:39;14.30;99.20
71084;DHT22;58741;52.672;13.548;2024-02-26T12:02:51;14.40;96.60
71084;DHT22;58741;52.672;13.548;2024-02-26T12:05:25;14.40;95.90
71084;DHT22;58741;52.672;13.548;2024-02-26T12:08:14;14.40;95.90
71084;DHT22;58741;52.672;13.548;2024-02-26T12:10:43;14.40;94.80
71084;DHT22;58741;52.672;13.548;2024-02-26T12:13:12;14.50;95.50
71084;DHT22;58741;52.672;13.548;2024-02-26T12:15:56;14.50;93.30
71084;DHT22;58741;52.672;13.548;2024-02-26T12:18:24;14.50;92.90
71084;DHT22;58741;52.672;13.548;2024-02-26T12:21:01;14.50;90.40
71084;DHT22;58741;52.672;13.548;2024-02-26T12:23:29;14.50;90.30
71084;DHT22;58741;52.672;13.548;2024-02-26T12:26:00;14.50;91.40
71084;DHT22;58741;52.672;13.548;2024-02-26T12:28:30;14.50;90.70
71084;DHT22;58741;52.672;13.548;2024-02-26T12:30:57;14.50;90.10
71084;DHT22;58741;52.672;13.548;2024-02-26T12:33:27;14.50;88.40
71084;DHT22;58741;52.672;13.548;2024-02-26T12:35:55;14.50;89.30
71084;DHT22;58741;52.672;13.548;2024-02-26T12:38:22;14.50;82.20
71084;DHT22;58741;52.672;13.548;2024-02-26T12:40:49;14.40;83.80
71084;DHT22;58741;52.672;13.548;2024-02-26T12:43:16;14.40;83.30
71084;DHT22;58741;52.672;13.548;2024-02-26T12:45:43;14.40;84.40
71084;DHT22;58741;52.672;13.548;2024-02-26T12:48:13;14.30;84.90
71084;DHT22;58741;52.672;13.548;2024-02-26T12:50:44;14.40;86.50
71084;DHT22;58741;52.672;13.548;2024-02-26T12:53:12;14.50;88.10
71084;DHT22;58741;52.672;13.548;2024-02-26T12:55:38;14.50;86.50
71084;DHT22;58741;52.672;13.548;2024-02-26T12:58:07;14.70;88.80
71084;DHT22;58741;52.672;13.548;2024-02-26T13:00:34;14.80;81.60
71084;DHT22;58741;52.672;13.548;2024-02-26T13:03:01;15.00;84.40
71084;DHT22;58741;52.672;13.548;2024-02-26T13:05:28;15.20;84.00
71084;DHT22;58741;52.672;13.548;2024-02-26T13:07:56;15.30;85.00
71084;DHT22;58741;52.672;13.548;2024-02-26T13:10:22;15.40;82.00
71084;DHT22;58741;52.672;13.548;2024-02-26T13:12:51;15.40;78.20
71084;DHT22;58741;52.672;13.548;2024-02-26T13:15:19;15.40;80.10
71084;DHT22;58741;52.672;13.548;2024-02-26T13:17:48;15.30;79.60
71084;DHT22;58741;52.672;13.548;2024-02-26T13:20:28;15.20;79.50
71084;DHT22;58741;52.672;13.548;2024-02-26T13:23:06;15.10;77.10
71084;DHT22;58741;52.672;13.548;2024-02-26T13:25:34;14.90;76.10
71084;DHT22;58741;52.672;13.548;2024-02-26T13:28:28;14.80;77.90
71084;DHT22;58741;52.672;13.548;2024-02-26T13:30:56;14.60;77.90
71084;DHT22;58741;52.672;13.548;2024-02-26T13:33:25;14.50;74.40
71084;DHT22;58741;52.672;13.548;2024-02-26T13:35:52;14.30;75.50
71084;DHT22;58741;52.672;13.548;2024-02-26T13:38:20;14.10;77.10
71084;DHT22;58741;52.672;13.548;2024-02-26T13:40:46;14.00;77.40
71084;DHT22;58741;52.672;13.548;2024-02-26T13:43:13;13.90;78.80
71084;DHT22;58741;52.672;13.548;2024-02-26T13:45:40;13.80;79.60
71084;DHT22;58741;52.672;13.548;2024-02-26T13:48:09;13.70;79.30
71084;DHT22;58741;52.672;13.548;2024-02-26T13:50:43;13.60;79.70
71084;DHT22;58741;52.672;13.548;2024-02-26T13:53:10;13.50;80.50
71084;DHT22;58741;52.672;13.548;2024-02-26T13:55:39;13.40;81.10
71084;DHT22;58741;52.672;13.548;2024-02-26T13:58:06;13.30;81.40
71084;DHT22;58741;52.672;13.548;2024-02-26T14:00:33;13.30;82.00
71084;DHT22;58741;52.672;13.548;2024-02-26T14:03:02;13.20;82.80
71084;DHT22;58741;52.672;13.548;2024-02-26T14:05:29;13.10;83.70
71084;DHT22;58741;52.672;13.548;2024-02-26T14:07:56;13.10;83.50
71084;DHT22;58741;52.672;13.548;2024-02-26T14:10:24;13.00;83.90
71084;DHT22;58741;52.672;13.548;2024-02-26T14:12:51;12.90;84.50
71084;DHT22;58741;52.672;13.548;2024-02-26T14:15:17;12.90;85.50
71084;DHT22;58741;52.672;13.548;2024-02-26T14:17:44;12.80;85.70
71084;DHT22;58741;52.672;13.548;2024-02-26T14:20:12;12.70;85.90
71084;DHT22;58741;52.672;13.548;2024-02-26T14:22:39;12.70;87.30
71084;DHT22;58741;52.672;13.548;2024-02-26T14:25:06;12.60;88.00
71084;DHT22;58741;52.672;13.548;2024-02-26T14:27:35;12.60;88.00
71084;DHT22;58741;52.672;13.548;2024-02-26T14:30:02;12.60;89.30
71084;DHT22;58741;52.672;13.548;2024-02-26T14:32:29;12.50;89.60
71084;DHT22;58741;52.672;13.548;2024-02-26T14:35:01;12.40;90.00
71084;DHT22;58741;52.672;13.548;2024-02-26T14:37:29;12.40;90.00
71084;DHT22;58741;52.672;13.548;2024-02-26T14:39:56;12.30;90.60
71084;DHT22;58741;52.672;13.548;2024-02-26T14:42:23;12.30;90.80
71084;DHT22;58741;52.672;13.548;2024-02-26T14:44:50;12.20;90.80
71084;DHT22;58741;52.672;13.548;2024-02-26T14:47:17;12.20;91.10
71084;DHT22;58741;52.672;13.548;2024-02-26T14:49:44;12.20;91.50
71084;DHT22;58741;52.672;13.548;2024-02-26T14:52:14;12.10;91.70
71084;DHT22;58741;52.672;13.548;2024-02-26T14:54:41;12.00;91.60
71084;DHT22;58741;52.672;13.548;2024-02-26T14:57:08;12.00;92.00
71084;DHT22;58741;52.672;13.548;2024-02-26T14:59:35;12.00;91.90
71084;DHT22;58741;52.672;13.548;2024-02-26T15:02:03;11.80;92.00
71084;DHT22;58741;52.672;13.548;2024-02-26T15:04:30;11.80;92.50
71084;DHT22;58741;52.672;13.548;2024-02-26T15:06:57;11.70;92.80
71084;DHT22;58741;52.672;13.548;2024-02-26T15:09:24;11.70;93.30
71084;DHT22;58741;52.672;13.548;2024-02-26T15:11:51;11.60;93.60
71084;DHT22;58741;52.672;13.548;2024-02-26T15:14:18;11.60;94.10
71084;DHT22;58741;52.672;13.548;2024-02-26T15:16:45;11.60;94.60
71084;DHT22;58741;52.672;13.548;2024-02-26T15:19:11;11.50;94.90
71084;DHT22;58741;52.672;13.548;2024-02-26T15:21:44;11.50;94.90
71084;DHT22;58741;52.672;13.548;2024-02-26T15:24:11;11.40;95.40
71084;DHT22;58741;52.672;13.548;2024-02-26T15:26:38;11.40;95.90
71084;DHT22;58741;52.672;13.548;2024-02-26T15:29:06;11.40;96.30